Time;durP1;ratioP1;P1;durP2;ratioP2;P2;SDS_P1;SDS_P2;PMS_P1;PMS_P2;Temp;Humidity;BMP_temperature;BMP_pressure;BME280_temperature;BME280_humidity;BME280_pressure;Samples;Min_cycle;Max_cycle;Signal;HPM_P1;HPM_P2
2023/04/18 00:08:38;;;;;;;21.58;13.45;;;;;;;9.58;75.64;100800.53;30993978;28;100258;-67
2023/04/18 00:23:39;;;;;;;22.20;13.90;;;;;;;9.60;76.09;100801.22;30992328;28;96759;-69
2023/04/18 00:38:39;;;;;;;21.55;13.98;;;;;;;9.61;75.75;100801.09;30990741;28;102191;-72
2023/04/18 00:53:40;;;;;;;22.00;14.82;;;;;;;9.53;76.17;100784.19;30989023;28;96671;-70
2023/04/18 01:08:42;;;;;;;23.47;14.83;;;;;;;9.55;76.70;100784.88;30988383;28;97059;-72
2023/04/18 01:23:42;;;;;;;21.90;13.97;;;;;;;9.51;76.34;100791.47;30986955;28;96591;-67
2023/04/18 01:38:42;;;;;;;22.80;16.20;;;;;;;9.41;76.35;100784.38;30985356;28;102008;-68
2023/04/18 01:53:43;;;;;;;25.60;14.13;;;;;;;9.29;76.95;100791.75;30983815;28;97655;-72
2023/04/18 02:08:43;;;;;;;17.88;13.30;;;;;;;9.22;76.94;100777.34;30981651;28;96852;-71
2023/04/18 02:23:43;;;;;;;19.08;13.25;;;;;;;9.13;76.92;100784.38;30981146;28;96649;-66
2023/04/18 02:38:44;;;;;;;19.23;13.15;;;;;;;9.14;77.43;100777.22;30978758;28;106485;-65
2023/04/18 02:53:44;;;;;;;20.17;13.40;;;;;;;9.08;77.22;100785.81;30977355;28;96608;-70
2023/04/18 03:08:45;;;;;;;19.20;12.45;;;;;;;9.05;77.79;100784.28;30976377;28;97438;-71
2023/04/18 03:23:45;;;;;;;18.63;13.65;;;;;;;9.09;78.11;100783.00;30989589;28;112268;-68
2023/04/18 03:38:45;;;;;;;19.00;13.00;;;;;;;9.03;77.86;100780.91;30993626;28;96597;-66
2023/04/18 03:53:46;;;;;;;21.10;13.77;;;;;;;9.03;78.17;100780.91;30993590;28;96719;-66
2023/04/18 04:08:46;;;;;;;21.38;12.88;;;;;;;9.01;78.39;100788.22;30992311;28;97437;-66
2023/04/18 04:23:46;;;;;;;19.75;13.73;;;;;;;9.01;78.17;100798.84;30990490;28;97014;-63
2023/04/18 04:38:47;;;;;;;24.83;15.98;;;;;;;9.01;78.48;100809.47;30987158;28;97068;-64
2023/04/18 04:53:47;;;;;;;27.40;17.15;;;;;;;9.05;78.46;100828.59;30984556;28;96766;-66
2023/04/18 05:08:49;;;;;;;29.83;16.52;;;;;;;9.05;78.75;100823.28;30978143;28;97413;-66
2023/04/18 05:23:49;;;;;;;20.30;14.13;;;;;;;9.07;78.45;100835.44;30915642;28;97196;-62
2023/04/18 05:38:50;;;;;;;22.83;15.57;;;;;;;9.12;78.50;100838.53;30925356;28;97041;-64
2023/04/18 05:53:50;;;;;;;22.58;14.55;;;;;;;9.24;78.37;100848.97;30951953;28;96775;-72
2023/04/18 06:08:51;;;;;;;20.88;13.63;;;;;;;9.30;78.68;100857.19;30959032;28;97155;-68
2023/04/18 06:23:51;;;;;;;21.70;14.18;;;;;;;9.39;78.76;100860.81;30856510;28;96607;-65
2023/04/18 06:38:51;;;;;;;26.75;15.63;;;;;;;9.60;78.71;100870.41;30858338;28;114736;-60
2023/04/18 06:53:52;;;;;;;19.00;12.82;;;;;;;9.68;78.47;100894.44;30840091;28;97047;-63
2023/04/18 07:08:54;;;;;;;19.30;11.45;;;;;;;9.73;78.08;100900.16;30856018;28;96604;-62
2023/04/18 07:23:55;;;;;;;16.10;10.93;;;;;;;10.01;78.68;100900.16;30855044;28;97291;-65
2023/04/18 07:38:56;;;;;;;14.35;10.63;;;;;;;10.30;77.98;100917.75;30851417;28;98548;-67
2023/04/18 07:53:58;;;;;;;11.03;8.40;;;;;;;10.75;77.50;100932.03;30852138;28;96791;-65
2023/04/18 08:09:01;;;;;;;11.60;7.57;;;;;;;10.66;77.09;100939.09;30858631;28;96711;-64
2023/04/18 08:24:02;;;;;;;12.73;8.60;;;;;;;10.77;76.91;100941.56;30871274;28;96677;-63
2023/04/18 08:39:02;;;;;;;12.85;8.65;;;;;;;11.06;76.70;100959.13;30863560;28;96706;-64
2023/04/18 08:54:05;;;;;;;13.20;8.95;;;;;;;11.40;76.04;100960.19;30951338;28;96755;-66
2023/04/18 09:09:05;;;;;;;18.37;10.20;;;;;;;11.51;75.36;100957.28;30988929;28;96691;-68
2023/04/18 09:24:19;;;;;;;18.42;10.77;;;;;;;12.24;74.78;100957.81;30987827;28;96766;-64
2023/04/18 09:39:26;;;;;;;16.30;10.57;;;;;;;12.59;73.54;100958.53;30980599;28;97528;-61
2023/04/18 09:54:31;;;;;;;15.10;10.33;;;;;;;12.57;72.10;100965.91;30978918;28;96804;-65
2023/04/18 10:09:33;;;;;;;17.33;10.47;;;;;;;12.52;72.31;100956.53;30981415;28;96822;-63
2023/04/18 10:24:55;;;;;;;19.43;11.57;;;;;;;12.18;71.42;100952.09;30982824;28;96810;-62
2023/04/18 10:40:05;;;;;;;16.90;10.53;;;;;;;12.33;71.73;100948.81;30981696;28;96772;-64
2023/04/18 10:55:19;;;;;;;16.20;10.20;;;;;;;15.26;70.45;100931.22;30980470;28;97737;-63
2023/04/18 11:10:23;;;;;;;14.83;10.77;;;;;;;16.95;64.77;100929.53;30975472;28;97281;-65
2023/04/18 11:25:35;;;;;;;17.20;11.47;;;;;;;16.32;62.51;100932.84;30977223;28;97575;-64
2023/04/18 11:40:35;;;;;;;20.60;11.03;;;;;;;15.35;62.67;100927.44;30986814;28;96810;-62
2023/04/18 11:55:36;;;;;;;24.88;13.45;;;;;;;14.47;63.30;100932.34;31002813;28;97278;-64
2023/04/18 12:10:37;;;;;;;24.80;13.77;;;;;;;14.46;64.23;100933.38;30995785;28;97307;-63
2023/04/18 12:25:38;;;;;;;17.03;12.43;;;;;;;15.10;62.70;100917.97;30994043;28;97543;-66
2023/04/18 12:40:39;;;;;;;14.40;11.50;;;;;;;15.80;61.42;100924.81;30988281;28;97068;-63
2023/04/18 12:55:40;;;;;;;21.43;12.10;;;;;;;15.42;60.72;100919.50;30990386;28;96894;-63
2023/04/18 13:10:40;;;;;;;15.93;11.27;;;;;;;16.99;58.22;100911.97;30989732;28;97945;-63
2023/04/18 13:25:40;;;;;;;23.17;13.70;;;;;;;18.89;54.02;100907.00;30988263;28;103055;-64
2023/04/18 13:40:40;;;;;;;21.85;12.07;;;;;;;18.71;52.41;100902.19;30980620;28;104068;-61
2023/04/18 13:55:41;;;;;;;21.15;15.05;;;;;;;18.19;51.74;100896.50;30980663;28;104356;-63
2023/04/18 14:10:41;;;;;;;23.50;15.38;;;;;;;17.55;51.88;100897.66;30978416;28;96925;-63
2023/04/18 14:25:42;;;;;;;22.88;13.63;;;;;;;16.91;51.41;100903.03;30975733;28;104553;-64
2023/04/18 14:40:42;;;;;;;19.05;11.88;;;;;;;16.57;52.37;100907.25;30970949;28;97491;-62
2023/04/18 14:55:43;;;;;;;14.88;10.90;;;;;;;16.85;51.45;100898.41;30923229;28;97241;-63
2023/04/18 15:10:45;;;;;;;18.23;11.85;;;;;;;16.77;50.72;100881.56;30925371;28;97412;-63
2023/04/18 15:25:45;;;;;;;20.60;13.57;;;;;;;16.30;50.68;100881.13;30955086;28;96959;-62
2023/04/18 15:40:46;;;;;;;17.23;10.80;;;;;;;15.64;52.30;100892.75;30937313;28;96847;-62
2023/04/18 15:55:46;;;;;;;20.63;13.45;;;;;;;15.56;53.38;100889.13;30940564;28;97147;-63
2023/04/18 16:10:46;;;;;;;21.25;13.82;;;;;;;15.12;54.50;100895.31;30939017;28;97492;-63
2023/04/18 16:25:47;;;;;;;23.63;13.40;;;;;;;14.58;56.26;100896.25;30919630;28;96769;-63
2023/04/18 16:40:47;;;;;;;21.60;14.23;;;;;;;14.17;57.40;100894.66;30983513;28;97478;-63
2023/04/18 16:55:52;;;;;;;22.50;15.32;;;;;;;13.86;58.73;100892.00;30962974;28;97983;-62
2023/04/18 17:10:52;;;;;;;23.27;14.80;;;;;;;13.65;59.65;100884.56;30977972;28;97538;-63
2023/04/18 17:25:52;;;;;;;23.90;15.95;;;;;;;13.40;60.65;100903.38;30966225;28;97166;-62
2023/04/18 17:41:01;;;;;;;23.27;14.93;;;;;;;13.21;61.37;100900.03;30963400;28;103559;-61
2023/04/18 17:56:02;;;;;;;25.50;16.40;;;;;;;13.01;62.44;100904.94;30970002;28;97148;-62
2023/04/18 18:11:04;;;;;;;21.20;15.33;;;;;;;12.78;63.38;100906.59;31034280;28;97566;-63
2023/04/18 18:26:05;;;;;;;21.67;14.17;;;;;;;12.64;64.35;100906.28;31099677;28;96640;-66
2023/04/18 18:41:06;;;;;;;20.33;13.80;;;;;;;12.51;64.99;100906.75;31100620;28;96744;-63
2023/04/18 18:56:07;;;;;;;20.27;13.00;;;;;;;12.45;65.50;100910.09;30966302;28;97139;-62
2023/04/18 19:11:08;;;;;;;20.83;12.73;;;;;;;12.34;65.38;100900.56;30965661;28;97140;-62
2023/04/18 19:26:09;;;;;;;19.30;13.00;;;;;;;12.25;65.99;100892.69;30973779;28;96699;-62
2023/04/18 19:41:09;;;;;;;24.58;14.25;;;;;;;12.18;66.21;100887.16;30969720;28;102814;-63
2023/04/18 19:56:11;;;;;;;20.38;12.93;;;;;;;12.10;66.53;100879.13;30968947;28;108898;-61
2023/04/18 20:11:15;;;;;;;23.60;13.87;;;;;;;12.01;66.92;100872.94;30991812;28;97067;-63
2023/04/18 20:26:15;;;;;;;18.67;12.43;;;;;;;11.92;67.31;100868.53;30990524;28;96659;-64
2023/04/18 20:41:22;;;;;;;19.55;13.35;;;;;;;11.83;67.37;100867.69;30988968;28;100569;-64
2023/04/18 20:56:23;;;;;;;20.40;13.70;;;;;;;11.75;67.22;100855.13;30980393;28;97715;-64
2023/04/18 21:11:23;;;;;;;20.88;13.75;;;;;;;11.63;67.02;100846.59;30988062;28;97382;-62
2023/04/18 21:26:24;;;;;;;22.92;13.50;;;;;;;11.52;66.94;100836.19;30986764;28;96693;-62
2023/04/18 21:41:24;;;;;;;19.85;12.85;;;;;;;11.37;67.43;100825.28;30984849;28;98419;-62
2023/04/18 21:56:25;;;;;;;20.77;13.30;;;;;;;11.23;67.26;100815.22;30984226;28;97371;-63
2023/04/18 22:11:26;;;;;;;21.70;13.05;;;;;;;11.13;68.08;100810.84;30983033;28;96775;-63
2023/04/18 22:26:26;;;;;;;19.52;12.63;;;;;;;11.04;68.22;100792.31;30980035;28;96683;-63
2023/04/18 22:41:26;;;;;;;19.63;11.90;;;;;;;10.87;68.11;100775.38;30979753;28;102651;-64
2023/04/18 22:56:26;;;;;;;17.65;10.32;;;;;;;10.84;68.67;100758.72;30978539;28;104946;-64
2023/04/18 23:11:27;;;;;;;19.40;11.25;;;;;;;10.78;68.24;100755.84;30977147;28;96924;-65
2023/04/18 23:26:27;;;;;;;18.50;11.15;;;;;;;10.58;68.50;100729.41;30976533;28;96680;-65
2023/04/18 23:41:27;;;;;;;15.77;10.35;;;;;;;10.47;68.79;100716.34;30990011;28;106513;-62
2023/04/18 23:56:28;;;;;;;18.38;10.85;;;;;;;10.28;69.23;100686.25;30995959;28;96725;-65
